Terminal Aerodrome Forecast
Issued by NWS

Home | Current Version | Previous Version | Text Only | Print | Product List | Glossary On
Versions: 1 2 3 4 5 6 7 8 9 10 11 12 13 14 15 16
000
FTUS41 KRNK 271501 AAB
TAFBCB
TAF AMD
KBCB 271501Z 2715/2812 26004KT P6SM SCT025
     FM271700 24006KT P6SM BKN060
      TEMPO 2717/2719 4SM -SHRA
     FM280700 VRB03KT P6SM BKN020=

USA.gov is the U.S. government's official web portal to all federal, state and local government web resources and services.